sensor_id;sensor_type;location;lat;lon;timestamp;pressure;altitude;pressure_sealevel;temperature;humidity
2711;BME280;20721;47.402;8.550;2022-09-09T00:00:09;95877;;;19.04;57.37
2711;BME280;20721;47.402;8.550;2022-09-09T00:01:16;95878;;;19.06;57.36
2711;BME280;20721;47.402;8.550;2022-09-09T00:03:07;95878;;;19.04;57.25
2711;BME280;20721;47.402;8.550;2022-09-09T00:04:05;95878;;;19.05;57.38
2711;BME280;20721;47.402;8.550;2022-09-09T00:08:04;95875;;;19.01;57.41
2711;BME280;20721;47.402;8.550;2022-09-09T00:12:06;95878;;;19.03;57.72
2711;BME280;20721;47.402;8.550;2022-09-09T00:14:06;95876;;;19.06;57.84
2711;BME280;20721;47.402;8.550;2022-09-09T00:15:05;95877;;;19.07;57.79
2711;BME280;20721;47.402;8.550;2022-09-09T00:16:07;95874;;;19.08;57.83
2711;BME280;20721;47.402;8.550;2022-09-09T00:18:13;95872;;;18.93;58.27
2711;BME280;20721;47.402;8.550;2022-09-09T00:21:06;95873;;;18.96;57.93
2711;BME280;20721;47.402;8.550;2022-09-09T00:22:08;95869;;;18.98;57.84
2711;BME280;20721;47.402;8.550;2022-09-09T00:23:05;95870;;;19.01;57.72
2711;BME280;20721;47.402;8.550;2022-09-09T00:25:13;95868;;;19.06;57.53
2711;BME280;20721;47.402;8.550;2022-09-09T00:26:42;95870;;;19.08;57.47
2711;BME280;20721;47.402;8.550;2022-09-09T00:27:04;95864;;;19.11;57.50
2711;BME280;20721;47.402;8.550;2022-09-09T00:28:04;95863;;;19.13;57.46
2711;BME280;20721;47.402;8.550;2022-09-09T00:30:16;95869;;;19.15;57.38
2711;BME280;20721;47.402;8.550;2022-09-09T00:31:12;95868;;;19.16;57.42
2711;BME280;20721;47.402;8.550;2022-09-09T00:32:18;95869;;;19.17;57.47
2711;BME280;20721;47.402;8.550;2022-09-09T00:33:09;95867;;;19.18;57.55
2711;BME280;20721;47.402;8.550;2022-09-09T00:34:08;95868;;;19.19;57.56
2711;BME280;20721;47.402;8.550;2022-09-09T00:35:04;95863;;;19.20;57.77
2711;BME280;20721;47.402;8.550;2022-09-09T00:36:03;95861;;;19.21;57.79
2711;BME280;20721;47.402;8.550;2022-09-09T00:37:03;95863;;;19.22;57.92
2711;BME280;20721;47.402;8.550;2022-09-09T00:39:03;95861;;;19.20;57.94
2711;BME280;20721;47.402;8.550;2022-09-09T00:40:06;95866;;;19.18;58.15
2711;BME280;20721;47.402;8.550;2022-09-09T00:41:06;95867;;;19.16;58.21
2711;BME280;20721;47.402;8.550;2022-09-09T00:51:07;95863;;;19.15;58.85
2711;BME280;20721;47.402;8.550;2022-09-09T00:54:10;95863;;;19.14;58.76
2711;BME280;20721;47.402;8.550;2022-09-09T00:57:10;95872;;;19.17;58.84
2711;BME280;20721;47.402;8.550;2022-09-09T00:58:06;95873;;;19.19;58.77
2711;BME280;20721;47.402;8.550;2022-09-09T01:01:10;95883;;;19.15;58.86
2711;BME280;20721;47.402;8.550;2022-09-09T01:02:08;95881;;;19.14;58.92
2711;BME280;20721;47.402;8.550;2022-09-09T01:04:03;95879;;;19.18;58.79
2711;BME280;20721;47.402;8.550;2022-09-09T01:05:05;95877;;;19.19;58.71
2711;BME280;20721;47.402;8.550;2022-09-09T01:06:11;95874;;;19.20;58.70
2711;BME280;20721;47.402;8.550;2022-09-09T01:07:07;95874;;;19.21;58.60
2711;BME280;20721;47.402;8.550;2022-09-09T01:08:05;95875;;;19.22;58.63
2711;BME280;20721;47.402;8.550;2022-09-09T01:09:07;95874;;;19.24;58.66
2711;BME280;20721;47.402;8.550;2022-09-09T01:10:04;95873;;;19.25;58.61
2711;BME280;20721;47.402;8.550;2022-09-09T01:11:03;95873;;;19.27;58.58
2711;BME280;20721;47.402;8.550;2022-09-09T01:13:04;95875;;;19.29;58.42
2711;BME280;20721;47.402;8.550;2022-09-09T01:16:03;95874;;;19.30;58.50
2711;BME280;20721;47.402;8.550;2022-09-09T01:17:21;95875;;;19.31;58.56
2711;BME280;20721;47.402;8.550;2022-09-09T01:19:03;95872;;;19.34;58.53
2711;BME280;20721;47.402;8.550;2022-09-09T01:22:09;95875;;;19.33;58.51
2711;BME280;20721;47.402;8.550;2022-09-09T01:27:03;95875;;;19.26;57.82
2711;BME280;20721;47.402;8.550;2022-09-09T01:29:06;95884;;;19.24;57.60
2711;BME280;20721;47.402;8.550;2022-09-09T01:30:07;95887;;;19.22;57.60
2711;BME280;20721;47.402;8.550;2022-09-09T01:31:04;95890;;;19.20;57.56
2711;BME280;20721;47.402;8.550;2022-09-09T01:32:37;95894;;;19.18;57.53
2711;BME280;20721;47.402;8.550;2022-09-09T01:33:03;95895;;;19.15;57.49
2711;BME280;20721;47.402;8.550;2022-09-09T01:34:08;95895;;;19.10;57.62
2711;BME280;20721;47.402;8.550;2022-09-09T01:35:03;95889;;;19.06;57.66
2711;BME280;20721;47.402;8.550;2022-09-09T01:36:04;95891;;;19.04;57.69
2711;BME280;20721;47.402;8.550;2022-09-09T01:37:05;95891;;;19.00;57.64
2711;BME280;20721;47.402;8.550;2022-09-09T01:38:05;95890;;;18.95;57.82
2711;BME280;20721;47.402;8.550;2022-09-09T01:39:03;95893;;;18.90;57.99
2711;BME280;20721;47.402;8.550;2022-09-09T01:40:03;95889;;;18.79;58.30
2711;BME280;20721;47.402;8.550;2022-09-09T01:41:03;95884;;;18.60;58.76
2711;BME280;20721;47.402;8.550;2022-09-09T01:42:03;95882;;;18.49;59.17
2711;BME280;20721;47.402;8.550;2022-09-09T01:43:03;95884;;;18.39;59.55
2711;BME280;20721;47.402;8.550;2022-09-09T01:44:03;95885;;;18.38;59.68
2711;BME280;20721;47.402;8.550;2022-09-09T01:45:03;95881;;;18.33;59.83
2711;BME280;20721;47.402;8.550;2022-09-09T01:46:03;95879;;;18.22;60.15
2711;BME280;20721;47.402;8.550;2022-09-09T01:47:03;95879;;;18.19;60.34
2711;BME280;20721;47.402;8.550;2022-09-09T01:48:03;95877;;;18.18;60.50
2711;BME280;20721;47.402;8.550;2022-09-09T01:49:04;95886;;;18.16;60.51
2711;BME280;20721;47.402;8.550;2022-09-09T01:50:03;95884;;;18.20;60.50
2711;BME280;20721;47.402;8.550;2022-09-09T01:51:03;95883;;;18.27;60.47
2711;BME280;20721;47.402;8.550;2022-09-09T01:52:03;95892;;;18.35;60.25
2711;BME280;20721;47.402;8.550;2022-09-09T01:53:03;95890;;;18.42;60.03
2711;BME280;20721;47.402;8.550;2022-09-09T01:54:03;95890;;;18.50;59.82
2711;BME280;20721;47.402;8.550;2022-09-09T01:55:04;95888;;;18.55;59.66
2711;BME280;20721;47.402;8.550;2022-09-09T01:56:35;95892;;;18.59;59.51
2711;BME280;20721;47.402;8.550;2022-09-09T01:58:10;95890;;;18.61;59.24
2711;BME280;20721;47.402;8.550;2022-09-09T02:00:08;95898;;;18.58;59.05
2711;BME280;20721;47.402;8.550;2022-09-09T02:07:03;95898;;;18.64;59.03
2711;BME280;20721;47.402;8.550;2022-09-09T02:08:05;95898;;;18.63;59.06
2711;BME280;20721;47.402;8.550;2022-09-09T02:09:04;95899;;;18.59;59.25
2711;BME280;20721;47.402;8.550;2022-09-09T02:10:12;95903;;;18.36;59.96
2711;BME280;20721;47.402;8.550;2022-09-09T02:12:08;95910;;;18.24;60.35
2711;BME280;20721;47.402;8.550;2022-09-09T02:13:07;95914;;;18.29;60.34
2711;BME280;20721;47.402;8.550;2022-09-09T02:14:05;95911;;;18.35;60.22
2711;BME280;20721;47.402;8.550;2022-09-09T02:15:07;95909;;;18.41;59.97
2711;BME280;20721;47.402;8.550;2022-09-09T02:16:07;95903;;;18.47;59.68
2711;BME280;20721;47.402;8.550;2022-09-09T02:17:05;95909;;;18.53;59.40
2711;BME280;20721;47.402;8.550;2022-09-09T02:18:04;95904;;;18.56;59.19
2711;BME280;20721;47.402;8.550;2022-09-09T02:19:09;95904;;;18.60;59.06
2711;BME280;20721;47.402;8.550;2022-09-09T02:20:05;95907;;;18.64;58.95
2711;BME280;20721;47.402;8.550;2022-09-09T02:21:03;95909;;;18.68;58.70
2711;BME280;20721;47.402;8.550;2022-09-09T02:22:03;95907;;;18.69;58.48
2711;BME280;20721;47.402;8.550;2022-09-09T02:23:04;95909;;;18.70;58.34
2711;BME280;20721;47.402;8.550;2022-09-09T02:25:03;95914;;;18.72;58.10
2711;BME280;20721;47.402;8.550;2022-09-09T02:26:03;95912;;;18.75;57.86
2711;BME280;20721;47.402;8.550;2022-09-09T02:27:04;95910;;;18.77;57.76
2711;BME280;20721;47.402;8.550;2022-09-09T02:29:04;95905;;;18.76;57.91
2711;BME280;20721;47.402;8.550;2022-09-09T02:30:03;95907;;;18.71;57.99
2711;BME280;20721;47.402;8.550;2022-09-09T02:31:03;95905;;;18.68;57.86
2711;BME280;20721;47.402;8.550;2022-09-09T02:32:06;95910;;;18.66;57.71
2711;BME280;20721;47.402;8.550;2022-09-09T02:33:04;95909;;;18.56;57.78
2711;BME280;20721;47.402;8.550;2022-09-09T02:34:03;95912;;;18.48;58.12
2711;BME280;20721;47.402;8.550;2022-09-09T02:35:05;95916;;;18.45;58.34
2711;BME280;20721;47.402;8.550;2022-09-09T02:36:03;95915;;;18.46;58.42
2711;BME280;20721;47.402;8.550;2022-09-09T02:37:03;95914;;;18.49;58.44
2711;BME280;20721;47.402;8.550;2022-09-09T02:38:04;95911;;;18.52;58.51
2711;BME280;20721;47.402;8.550;2022-09-09T02:39:03;95911;;;18.55;58.48
2711;BME280;20721;47.402;8.550;2022-09-09T02:40:04;95913;;;18.60;58.53
2711;BME280;20721;47.402;8.550;2022-09-09T02:41:04;95910;;;18.65;58.56
2711;BME280;20721;47.402;8.550;2022-09-09T02:42:04;95911;;;18.70;58.53
2711;BME280;20721;47.402;8.550;2022-09-09T02:43:03;95913;;;18.74;58.43
2711;BME280;20721;47.402;8.550;2022-09-09T02:44:18;95916;;;18.77;58.34
2711;BME280;20721;47.402;8.550;2022-09-09T02:45:03;95916;;;18.80;58.20
2711;BME280;20721;47.402;8.550;2022-09-09T02:46:07;95914;;;18.82;58.00
2711;BME280;20721;47.402;8.550;2022-09-09T02:47:07;95916;;;18.84;57.90
2711;BME280;20721;47.402;8.550;2022-09-09T02:48:12;95914;;;18.87;57.71
2711;BME280;20721;47.402;8.550;2022-09-09T02:49:06;95918;;;18.89;57.39
2711;BME280;20721;47.402;8.550;2022-09-09T02:51:07;95915;;;18.89;57.21
2711;BME280;20721;47.402;8.550;2022-09-09T02:56:04;95926;;;18.93;57.01
2711;BME280;20721;47.402;8.550;2022-09-09T02:57:10;95932;;;18.94;56.91
2711;BME280;20721;47.402;8.550;2022-09-09T02:58:05;95929;;;18.96;56.81
2711;BME280;20721;47.402;8.550;2022-09-09T02:59:04;95932;;;18.95;56.70
2711;BME280;20721;47.402;8.550;2022-09-09T03:01:03;95930;;;18.94;56.75
2711;BME280;20721;47.402;8.550;2022-09-09T03:03:03;95927;;;18.93;56.62
2711;BME280;20721;47.402;8.550;2022-09-09T03:06:03;95931;;;18.94;56.33
2711;BME280;20721;47.402;8.550;2022-09-09T03:09:03;95931;;;18.93;55.99
2711;BME280;20721;47.402;8.550;2022-09-09T03:10:04;95931;;;18.92;56.09
2711;BME280;20721;47.402;8.550;2022-09-09T03:12:04;95927;;;18.91;56.34
2711;BME280;20721;47.402;8.550;2022-09-09T03:13:05;95929;;;18.90;56.44
2711;BME280;20721;47.402;8.550;2022-09-09T03:14:03;95925;;;18.89;56.67
2711;BME280;20721;47.402;8.550;2022-09-09T03:15:03;95923;;;18.78;57.13
2711;BME280;20721;47.402;8.550;2022-09-09T03:16:04;95918;;;18.67;57.52
2711;BME280;20721;47.402;8.550;2022-09-09T03:17:03;95922;;;18.59;57.96
2711;BME280;20721;47.402;8.550;2022-09-09T03:18:03;95924;;;18.55;57.96
2711;BME280;20721;47.402;8.550;2022-09-09T03:19:03;95927;;;18.59;57.94
2711;BME280;20721;47.402;8.550;2022-09-09T03:20:03;95928;;;18.65;57.86
2711;BME280;20721;47.402;8.550;2022-09-09T03:21:03;95925;;;18.71;57.77
2711;BME280;20721;47.402;8.550;2022-09-09T03:22:04;95927;;;18.79;57.57
2711;BME280;20721;47.402;8.550;2022-09-09T03:23:03;95926;;;18.84;57.42
2711;BME280;20721;47.402;8.550;2022-09-09T03:24:03;95927;;;18.90;57.12
2711;BME280;20721;47.402;8.550;2022-09-09T03:25:03;95922;;;18.95;56.92
2711;BME280;20721;47.402;8.550;2022-09-09T03:26:03;95929;;;18.98;56.56
2711;BME280;20721;47.402;8.550;2022-09-09T03:27:03;95927;;;19.01;56.32
2711;BME280;20721;47.402;8.550;2022-09-09T03:28:03;95929;;;19.05;56.09
2711;BME280;20721;47.402;8.550;2022-09-09T03:29:07;95929;;;19.07;55.90
2711;BME280;20721;47.402;8.550;2022-09-09T03:30:04;95933;;;19.09;55.84
2711;BME280;20721;47.402;8.550;2022-09-09T03:31:04;95934;;;19.12;55.62
2711;BME280;20721;47.402;8.550;2022-09-09T03:33:03;95934;;;19.11;55.58
2711;BME280;20721;47.402;8.550;2022-09-09T03:34:03;95934;;;19.09;55.30
2711;BME280;20721;47.402;8.550;2022-09-09T03:35:03;95935;;;19.06;55.40
2711;BME280;20721;47.402;8.550;2022-09-09T03:36:03;95932;;;19.03;55.39
2711;BME280;20721;47.402;8.550;2022-09-09T03:40:04;95928;;;19.02;55.77
2711;BME280;20721;47.402;8.550;2022-09-09T03:41:05;95927;;;19.01;55.64
2711;BME280;20721;47.402;8.550;2022-09-09T03:42:03;95933;;;19.00;55.69
2711;BME280;20721;47.402;8.550;2022-09-09T03:45:04;95937;;;19.01;56.08
2711;BME280;20721;47.402;8.550;2022-09-09T03:47:03;95935;;;19.00;56.13
2711;BME280;20721;47.402;8.550;2022-09-09T03:48:04;95938;;;18.98;56.06
2711;BME280;20721;47.402;8.550;2022-09-09T03:49:04;95937;;;18.97;56.09
2711;BME280;20721;47.402;8.550;2022-09-09T03:50:05;95936;;;18.93;56.37
2711;BME280;20721;47.402;8.550;2022-09-09T03:51:03;95935;;;18.92;56.49
2711;BME280;20721;47.402;8.550;2022-09-09T03:52:03;95932;;;18.91;56.55
2711;BME280;20721;47.402;8.550;2022-09-09T03:53:03;95931;;;18.92;56.83
2711;BME280;20721;47.402;8.550;2022-09-09T03:54:05;95932;;;18.90;56.85
2711;BME280;20721;47.402;8.550;2022-09-09T03:55:04;95934;;;18.89;56.72
2711;BME280;20721;47.402;8.550;2022-09-09T03:57:04;95937;;;18.87;56.72
2711;BME280;20721;47.402;8.550;2022-09-09T03:58:03;95935;;;18.86;56.72
2711;BME280;20721;47.402;8.550;2022-09-09T03:59:03;95935;;;18.84;56.72
2711;BME280;20721;47.402;8.550;2022-09-09T04:00:05;95934;;;18.82;56.95
2711;BME280;20721;47.402;8.550;2022-09-09T04:01:04;95931;;;18.81;56.96
2711;BME280;20721;47.402;8.550;2022-09-09T04:02:03;95928;;;18.80;56.98
2711;BME280;20721;47.402;8.550;2022-09-09T04:03:03;95929;;;18.77;56.83
2711;BME280;20721;47.402;8.550;2022-09-09T04:04:03;95928;;;18.74;57.48
2711;BME280;20721;47.402;8.550;2022-09-09T04:05:03;95926;;;18.73;57.57
2711;BME280;20721;47.402;8.550;2022-09-09T04:08:03;95926;;;18.75;58.29
2711;BME280;20721;47.402;8.550;2022-09-09T04:09:03;95921;;;18.76;58.58
2711;BME280;20721;47.402;8.550;2022-09-09T04:11:04;95922;;;18.75;57.97
2711;BME280;20721;47.402;8.550;2022-09-09T04:12:04;95921;;;18.74;57.83
2711;BME280;20721;47.402;8.550;2022-09-09T04:13:04;95918;;;18.67;58.16
2711;BME280;20721;47.402;8.550;2022-09-09T04:14:05;95918;;;18.57;58.24
2711;BME280;20721;47.402;8.550;2022-09-09T04:15:03;95916;;;18.52;58.95
2711;BME280;20721;47.402;8.550;2022-09-09T04:17:06;95918;;;18.53;59.44
2711;BME280;20721;47.402;8.550;2022-09-09T04:18:03;95918;;;18.54;59.32
2711;BME280;20721;47.402;8.550;2022-09-09T04:20:03;95913;;;18.53;59.20
2711;BME280;20721;47.402;8.550;2022-09-09T04:21:04;95914;;;18.52;59.21
2711;BME280;20721;47.402;8.550;2022-09-09T04:23:04;95930;;;18.53;59.34
2711;BME280;20721;47.402;8.550;2022-09-09T04:24:03;95935;;;18.51;59.21
2711;BME280;20721;47.402;8.550;2022-09-09T04:25:04;95936;;;18.49;59.42
2711;BME280;20721;47.402;8.550;2022-09-09T04:28:03;95939;;;18.51;59.54
2711;BME280;20721;47.402;8.550;2022-09-09T04:29:03;95939;;;18.50;59.42
2711;BME280;20721;47.402;8.550;2022-09-09T04:31:05;95943;;;18.49;59.48
2711;BME280;20721;47.402;8.550;2022-09-09T04:32:04;95941;;;18.48;59.53
2711;BME280;20721;47.402;8.550;2022-09-09T04:33:03;95933;;;18.46;59.41
2711;BME280;20721;47.402;8.550;2022-09-09T04:35:03;95929;;;18.31;60.12
2711;BME280;20721;47.402;8.550;2022-09-09T04:36:03;95932;;;18.22;60.28
2711;BME280;20721;47.402;8.550;2022-09-09T04:37:03;95931;;;18.17;60.64
2711;BME280;20721;47.402;8.550;2022-09-09T04:38:04;95932;;;18.19;60.83
2711;BME280;20721;47.402;8.550;2022-09-09T04:39:03;95930;;;18.25;60.75
2711;BME280;20721;47.402;8.550;2022-09-09T04:40:04;95928;;;18.32;61.07
2711;BME280;20721;47.402;8.550;2022-09-09T04:41:03;95929;;;18.38;60.83
2711;BME280;20721;47.402;8.550;2022-09-09T04:42:03;95928;;;18.35;60.80
2711;BME280;20721;47.402;8.550;2022-09-09T04:44:03;95930;;;18.38;60.95
2711;BME280;20721;47.402;8.550;2022-09-09T04:45:03;95929;;;18.42;61.09
2711;BME280;20721;47.402;8.550;2022-09-09T04:46:04;95926;;;18.46;61.33
2711;BME280;20721;47.402;8.550;2022-09-09T04:47:03;95921;;;18.50;61.74
2711;BME280;20721;47.402;8.550;2022-09-09T04:50:05;95915;;;18.49;61.06
2711;BME280;20721;47.402;8.550;2022-09-09T04:51:05;95914;;;18.43;61.10
2711;BME280;20721;47.402;8.550;2022-09-09T04:52:03;95917;;;18.38;61.62
2711;BME280;20721;47.402;8.550;2022-09-09T04:53:04;95922;;;18.36;61.84
2711;BME280;20721;47.402;8.550;2022-09-09T04:54:03;95923;;;18.37;61.82
2711;BME280;20721;47.402;8.550;2022-09-09T04:55:04;95919;;;18.39;61.95
2711;BME280;20721;47.402;8.550;2022-09-09T04:56:04;95918;;;18.42;62.02
2711;BME280;20721;47.402;8.550;2022-09-09T04:57:03;95919;;;18.41;61.57
2711;BME280;20721;47.402;8.550;2022-09-09T04:58:05;95921;;;18.37;62.01
2711;BME280;20721;47.402;8.550;2022-09-09T04:59:05;95922;;;18.29;61.77
2711;BME280;20721;47.402;8.550;2022-09-09T05:00:05;95923;;;18.26;61.71
2711;BME280;20721;47.402;8.550;2022-09-09T05:02:03;95920;;;18.27;61.99
2711;BME280;20721;47.402;8.550;2022-09-09T05:03:04;95921;;;18.26;61.99
2711;BME280;20721;47.402;8.550;2022-09-09T05:04:03;95924;;;18.19;62.03
2711;BME280;20721;47.402;8.550;2022-09-09T05:05:03;95923;;;18.18;61.90
2711;BME280;20721;47.402;8.550;2022-09-09T05:06:04;95922;;;18.13;62.11
2711;BME280;20721;47.402;8.550;2022-09-09T05:08:05;95923;;;18.16;62.44
2711;BME280;20721;47.402;8.550;2022-09-09T05:09:03;95930;;;18.20;62.16
2711;BME280;20721;47.402;8.550;2022-09-09T05:10:05;95924;;;18.22;62.11
2711;BME280;20721;47.402;8.550;2022-09-09T05:11:11;95928;;;18.20;62.03
2711;BME280;20721;47.402;8.550;2022-09-09T05:12:04;95925;;;18.15;62.20
2711;BME280;20721;47.402;8.550;2022-09-09T05:13:04;95927;;;18.12;62.24
2711;BME280;20721;47.402;8.550;2022-09-09T05:14:04;95926;;;18.13;62.31
2711;BME280;20721;47.402;8.550;2022-09-09T05:15:04;95932;;;18.01;62.68
2711;BME280;20721;47.402;8.550;2022-09-09T05:16:04;95928;;;17.98;62.31
2711;BME280;20721;47.402;8.550;2022-09-09T05:17:03;95923;;;17.94;62.53
2711;BME280;20721;47.402;8.550;2022-09-09T05:18:03;95924;;;17.95;62.93
2711;BME280;20721;47.402;8.550;2022-09-09T05:19:03;95928;;;17.96;62.90
2711;BME280;20721;47.402;8.550;2022-09-09T05:20:10;95928;;;17.99;62.77
2711;BME280;20721;47.402;8.550;2022-09-09T05:21:03;95928;;;18.01;62.88
2711;BME280;20721;47.402;8.550;2022-09-09T05:22:04;95930;;;18.05;62.95
2711;BME280;20721;47.402;8.550;2022-09-09T05:23:04;95930;;;18.07;63.03
2711;BME280;20721;47.402;8.550;2022-09-09T05:24:03;95928;;;18.02;63.00
2711;BME280;20721;47.402;8.550;2022-09-09T05:25:03;95925;;;17.90;63.02
2711;BME280;20721;47.402;8.550;2022-09-09T05:26:04;95926;;;17.82;63.59
2711;BME280;20721;47.402;8.550;2022-09-09T05:27:05;95927;;;17.80;63.77
2711;BME280;20721;47.402;8.550;2022-09-09T05:28:03;95926;;;17.77;63.87
2711;BME280;20721;47.402;8.550;2022-09-09T05:29:04;95931;;;17.79;63.94
2711;BME280;20721;47.402;8.550;2022-09-09T05:30:04;95931;;;17.81;63.93
2711;BME280;20721;47.402;8.550;2022-09-09T05:31:05;95932;;;17.78;64.14
2711;BME280;20721;47.402;8.550;2022-09-09T05:32:04;95931;;;17.69;64.23
2711;BME280;20721;47.402;8.550;2022-09-09T05:33:03;95925;;;17.65;64.39
2711;BME280;20721;47.402;8.550;2022-09-09T05:34:03;95927;;;17.68;64.49
2711;BME280;20721;47.402;8.550;2022-09-09T05:35:04;95927;;;17.71;64.88
2711;BME280;20721;47.402;8.550;2022-09-09T05:36:05;95932;;;17.69;64.34
2711;BME280;20721;47.402;8.550;2022-09-09T05:37:04;95932;;;17.65;64.80
2711;BME280;20721;47.402;8.550;2022-09-09T05:38:04;95932;;;17.68;64.95
2711;BME280;20721;47.402;8.550;2022-09-09T05:39:03;95935;;;17.75;64.03
2711;BME280;20721;47.402;8.550;2022-09-09T05:40:04;95931;;;17.64;64.62
2711;BME280;20721;47.402;8.550;2022-09-09T05:41:04;95934;;;17.56;64.63
2711;BME280;20721;47.402;8.550;2022-09-09T05:42:04;95935;;;17.59;64.83
2711;BME280;20721;47.402;8.550;2022-09-09T05:43:03;95939;;;17.66;64.73
2711;BME280;20721;47.402;8.550;2022-09-09T05:44:04;95944;;;17.73;64.56
2711;BME280;20721;47.402;8.550;2022-09-09T05:45:04;95947;;;17.80;64.23
2711;BME280;20721;47.402;8.550;2022-09-09T05:46:05;95947;;;17.87;63.91
2711;BME280;20721;47.402;8.550;2022-09-09T05:47:04;95945;;;17.91;63.59
2711;BME280;20721;47.402;8.550;2022-09-09T05:48:03;95949;;;17.96;63.78
2711;BME280;20721;47.402;8.550;2022-09-09T05:49:05;95948;;;18.03;63.78
2711;BME280;20721;47.402;8.550;2022-09-09T05:50:04;95948;;;18.10;63.62
2711;BME280;20721;47.402;8.550;2022-09-09T05:51:05;95951;;;18.17;63.26
2711;BME280;20721;47.402;8.550;2022-09-09T05:52:03;95948;;;18.22;63.36
2711;BME280;20721;47.402;8.550;2022-09-09T05:53:03;95947;;;18.26;63.11
2711;BME280;20721;47.402;8.550;2022-09-09T05:54:03;95948;;;18.29;62.83
2711;BME280;20721;47.402;8.550;2022-09-09T05:55:04;95949;;;18.32;63.23
2711;BME280;20721;47.402;8.550;2022-09-09T05:56:04;95947;;;18.36;63.11
2711;BME280;20721;47.402;8.550;2022-09-09T05:57:06;95948;;;18.38;63.09
2711;BME280;20721;47.402;8.550;2022-09-09T05:58:04;95951;;;18.37;62.76
2711;BME280;20721;47.402;8.550;2022-09-09T05:59:04;95951;;;18.34;62.75
2711;BME280;20721;47.402;8.550;2022-09-09T06:00:04;95953;;;18.28;62.92
2711;BME280;20721;47.402;8.550;2022-09-09T06:01:08;95949;;;18.23;62.59
2711;BME280;20721;47.402;8.550;2022-09-09T06:02:04;95954;;;18.10;63.33
2711;BME280;20721;47.402;8.550;2022-09-09T06:03:04;95954;;;17.88;63.97
2711;BME280;20721;47.402;8.550;2022-09-09T06:04:04;95954;;;17.82;64.16
2711;BME280;20721;47.402;8.550;2022-09-09T06:05:04;95957;;;17.87;64.07
2711;BME280;20721;47.402;8.550;2022-09-09T06:06:07;95957;;;17.95;63.93
2711;BME280;20721;47.402;8.550;2022-09-09T06:07:04;95960;;;18.06;64.11
2711;BME280;20721;47.402;8.550;2022-09-09T06:08:04;95959;;;18.17;64.08
2711;BME280;20721;47.402;8.550;2022-09-09T06:09:07;95956;;;18.25;63.72
2711;BME280;20721;47.402;8.550;2022-09-09T06:10:04;95955;;;18.31;63.43
2711;BME280;20721;47.402;8.550;2022-09-09T06:11:04;95956;;;18.34;63.17
2711;BME280;20721;47.402;8.550;2022-09-09T06:13:04;95952;;;18.28;63.39
2711;BME280;20721;47.402;8.550;2022-09-09T06:14:04;95953;;;18.31;63.11
2711;BME280;20721;47.402;8.550;2022-09-09T06:15:04;95949;;;18.33;62.65
2711;BME280;20721;47.402;8.550;2022-09-09T06:19:04;95946;;;18.28;63.08
2711;BME280;20721;47.402;8.550;2022-09-09T06:20:04;95944;;;18.25;63.12
2711;BME280;20721;47.402;8.550;2022-09-09T06:21:05;95946;;;18.12;63.42
2711;BME280;20721;47.402;8.550;2022-09-09T06:22:04;95942;;;18.11;63.77
2711;BME280;20721;47.402;8.550;2022-09-09T06:23:04;95940;;;18.08;63.42
2711;BME280;20721;47.402;8.550;2022-09-09T06:24:04;95943;;;18.10;63.43
2711;BME280;20721;47.402;8.550;2022-09-09T06:25:04;95941;;;18.09;63.34
2711;BME280;20721;47.402;8.550;2022-09-09T06:27:05;95947;;;18.13;62.69
2711;BME280;20721;47.402;8.550;2022-09-09T06:28:04;95948;;;18.22;63.05
2711;BME280;20721;47.402;8.550;2022-09-09T06:29:04;95948;;;18.34;63.20
2711;BME280;20721;47.402;8.550;2022-09-09T06:30:04;95945;;;18.45;62.81
2711;BME280;20721;47.402;8.550;2022-09-09T06:31:05;95947;;;18.48;61.86
2711;BME280;20721;47.402;8.550;2022-09-09T06:32:04;95946;;;18.50;62.06
2711;BME280;20721;47.402;8.550;2022-09-09T06:33:04;95947;;;18.52;62.09
2711;BME280;20721;47.402;8.550;2022-09-09T06:34:07;95947;;;18.54;61.74
2711;BME280;20721;47.402;8.550;2022-09-09T06:35:04;95945;;;18.58;61.59
2711;BME280;20721;47.402;8.550;2022-09-09T06:36:04;95944;;;18.62;61.71
2711;BME280;20721;47.402;8.550;2022-09-09T06:37:04;95945;;;18.69;62.02
2711;BME280;20721;47.402;8.550;2022-09-09T06:38:04;95943;;;18.63;61.90
2711;BME280;20721;47.402;8.550;2022-09-09T06:39:04;95952;;;18.57;61.46
2711;BME280;20721;47.402;8.550;2022-09-09T06:40:04;95948;;;18.48;60.77
2711;BME280;20721;47.402;8.550;2022-09-09T06:41:05;95945;;;18.46;61.31
2711;BME280;20721;47.402;8.550;2022-09-09T06:42:04;95942;;;18.50;61.47
2711;BME280;20721;47.402;8.550;2022-09-09T06:43:04;95943;;;18.52;61.63
2711;BME280;20721;47.402;8.550;2022-09-09T06:44:04;95942;;;18.46;61.65
2711;BME280;20721;47.402;8.550;2022-09-09T06:46:05;95938;;;18.52;61.96
2711;BME280;20721;47.402;8.550;2022-09-09T06:47:04;95937;;;18.60;61.57
2711;BME280;20721;47.402;8.550;2022-09-09T06:48:04;95933;;;18.63;61.58
2711;BME280;20721;47.402;8.550;2022-09-09T06:49:04;95932;;;18.70;61.71
2711;BME280;20721;47.402;8.550;2022-09-09T06:50:05;95932;;;18.78;61.02
2711;BME280;20721;47.402;8.550;2022-09-09T06:51:04;95933;;;18.83;61.49
2711;BME280;20721;47.402;8.550;2022-09-09T06:52:04;95933;;;18.90;61.44
2711;BME280;20721;47.402;8.550;2022-09-09T06:53:04;95935;;;18.95;60.83
2711;BME280;20721;47.402;8.550;2022-09-09T06:54:04;95936;;;18.94;60.50
2711;BME280;20721;47.402;8.550;2022-09-09T06:55:04;95936;;;18.87;60.47
2711;BME280;20721;47.402;8.550;2022-09-09T06:57:14;95943;;;19.21;61.29
2711;BME280;20721;47.402;8.550;2022-09-09T06:58:07;95944;;;19.70;60.78
2711;BME280;20721;47.402;8.550;2022-09-09T06:59:05;95942;;;20.23;58.42
2711;BME280;20721;47.402;8.550;2022-09-09T07:00:04;95946;;;20.52;58.27
2711;BME280;20721;47.402;8.550;2022-09-09T07:01:05;95945;;;20.64;56.38
2711;BME280;20721;47.402;8.550;2022-09-09T07:02:04;95942;;;20.79;56.54
2711;BME280;20721;47.402;8.550;2022-09-09T07:03:04;95942;;;20.96;55.94
2711;BME280;20721;47.402;8.550;2022-09-09T07:04:04;95941;;;21.15;55.53
2711;BME280;20721;47.402;8.550;2022-09-09T07:05:04;95944;;;21.28;55.44
2711;BME280;20721;47.402;8.550;2022-09-09T07:06:04;95943;;;21.56;54.77
2711;BME280;20721;47.402;8.550;2022-09-09T07:07:04;95944;;;21.70;54.34
2711;BME280;20721;47.402;8.550;2022-09-09T07:08:04;95942;;;21.49;53.32
2711;BME280;20721;47.402;8.550;2022-09-09T07:09:04;95946;;;21.42;54.32